createdAt,value
2023-01-30T06:42:33.025Z,93.22
2023-01-30T06:45:19.937Z,93.22
2023-01-30T06:48:06.301Z,95.61
2023-01-30T06:50:55.251Z,95.47
2023-01-30T06:53:40.931Z,95.45
2023-01-30T06:56:34.017Z,93.43
2023-01-30T06:59:19.475Z,84.61
2023-01-30T07:02:04.898Z,73.84
2023-01-30T07:04:50.668Z,65.46
2023-01-30T07:07:36.860Z,63.11
2023-01-30T07:10:22.276Z,60.85
2023-01-30T07:13:08.077Z,59.02
2023-01-30T07:15:53.617Z,57.33
2023-01-30T07:18:39.060Z,55.89
2023-01-30T07:21:27.705Z,53.47
2023-01-30T07:24:13.403Z,53.34
2023-01-30T07:26:58.588Z,51.33
2023-01-30T07:29:45.093Z,50.03
2023-01-30T07:32:30.257Z,47.27
2023-01-30T07:35:16.636Z,46.71
2023-01-30T07:38:03.071Z,44.82
2023-01-30T07:40:49.364Z,42.81
2023-01-30T07:43:34.809Z,42.17
2023-01-30T07:46:23.242Z,40.69
2023-01-30T07:49:10.055Z,42.48
2023-01-30T07:51:55.981Z,39.43
2023-01-30T07:54:42.302Z,38.69
2023-01-30T07:57:27.431Z,37.57
2023-01-30T08:00:15.810Z,36.37
2023-01-30T08:03:01.456Z,36.24
2023-01-30T08:05:47.332Z,37.12
2023-01-30T08:08:32.785Z,36.06
2023-01-30T08:11:18.462Z,34.52
2023-01-30T08:14:03.932Z,33.26
2023-01-30T08:16:51.160Z,33.52
2023-01-30T08:19:36.802Z,34.33
2023-01-30T08:22:22.233Z,33.27
2023-01-30T08:25:08.937Z,31.47
2023-01-30T08:27:54.918Z,30.96
2023-01-30T08:30:42.142Z,30.61
2023-01-30T08:33:28.435Z,29.22
2023-01-30T08:36:14.257Z,32.79
2023-01-30T08:38:59.421Z,32.34
2023-01-30T08:41:44.786Z,33.01
2023-01-30T08:44:30.352Z,31.34
2023-01-30T08:47:17.578Z,31.51
2023-01-30T08:50:06.768Z,28.50
2023-01-30T08:52:52.445Z,28.45
2023-01-30T08:55:38.273Z,29.24
2023-01-30T08:58:23.540Z,29.14
2023-01-30T09:01:08.917Z,32.62
2023-01-30T09:03:55.054Z,36.52
2023-01-30T09:06:40.715Z,35.90
2023-01-30T09:09:26.224Z,29.98
2023-01-30T09:12:11.433Z,26.91
2023-01-30T09:14:58.550Z,29.67
2023-01-30T09:17:46.231Z,28.55
2023-01-30T09:20:32.214Z,27.31
2023-01-30T09:23:17.581Z,27.82
2023-01-30T09:26:04.924Z,31.22
2023-01-30T09:28:50.491Z,30.63
2023-01-30T09:31:35.941Z,28.43
2023-01-30T09:34:21.276Z,26.05
2023-01-30T09:37:08.429Z,25.38
2023-01-30T09:39:54.304Z,22.34
2023-01-30T09:42:39.497Z,23.61
2023-01-30T09:46:00.345Z,22.18
2023-01-30T09:49:14.133Z,29.09
2023-01-30T09:52:25.717Z,34.89
2023-01-30T09:55:22.647Z,37.25
2023-01-30T09:58:18.412Z,36.34
2023-01-30T10:01:06.893Z,34.64
2023-01-30T10:04:20.436Z,35.78
2023-01-30T10:07:13.122Z,37.38
2023-01-30T10:10:17.476Z,41.15
2023-01-30T10:13:11.668Z,37.61
2023-01-30T10:16:09.248Z,26.33
2023-01-30T10:19:16.052Z,27.40
2023-01-30T10:22:25.157Z,27.48
2023-01-30T10:25:24.579Z,24.18
2023-01-30T10:28:13.793Z,23.38
2023-01-30T10:31:10.690Z,24.44
2023-01-30T10:34:10.964Z,28.74
2023-01-30T10:37:13.694Z,36.02
2023-01-30T10:40:18.086Z,41.79
2023-01-30T10:43:27.862Z,43.93
2023-01-30T10:46:31.752Z,45.69
2023-01-30T10:49:19.792Z,45.92
2023-01-30T10:52:44.141Z,46.56
2023-01-30T10:55:37.316Z,44.98
2023-01-30T10:58:38.412Z,44.30
2023-01-30T11:01:24.668Z,41.77
2023-01-30T11:04:38.733Z,31.99
2023-01-30T11:07:24.798Z,25.87
2023-01-30T11:10:19.569Z,23.02
2023-01-30T11:13:20.261Z,22.64
2023-01-30T11:16:07.943Z,24.26
2023-01-30T11:22:04.983Z,17.83
2023-01-30T11:25:06.544Z,19.57
2023-01-30T11:28:03.548Z,19.86
2023-01-30T11:30:58.856Z,22.44
2023-01-30T11:33:44.263Z,26.16
2023-01-30T11:36:33.553Z,32.95
2023-01-30T11:39:23.412Z,35.16
2023-01-30T11:42:10.951Z,33.41
2023-01-30T11:45:16.317Z,33.45
2023-01-30T11:48:23.466Z,35.62
2023-01-30T11:51:16.962Z,41.83
2023-01-30T11:54:05.459Z,44.12
2023-01-30T11:56:55.950Z,45.95
2023-01-30T11:59:46.592Z,46.68
2023-01-30T12:02:34.252Z,48.40
2023-01-30T12:05:33.117Z,49.41
2023-01-30T12:08:31.255Z,49.57
2023-01-30T12:11:45.382Z,50.90
2023-01-30T12:14:46.958Z,52.99
2023-01-30T12:18:11.535Z,52.97
2023-01-30T12:21:26.259Z,53.19
2023-01-30T12:24:14.145Z,51.95
2023-01-30T12:27:03.764Z,50.04
2023-01-30T12:30:11.583Z,47.25
2023-01-30T12:36:00.640Z,49.25
2023-01-30T12:39:15.056Z,48.91
2023-01-30T12:42:03.428Z,43.42
2023-01-30T12:44:57.770Z,38.27
